METAR Data
IDs: Format: Raw Decoded Include TAF

Data at: 1449 UTC 27 Nov 2021

ETIK 271429Z AUTO 25008KT 1000 R24/1200VP1500 -SN BR BKN009 OVC018 01/01 A2933 RMK AO2 VIS 0800V9000 DZB05E15RAB15E24SNB24 CIG 009V020 SLP948 $